Terminal Aerodrome Forecast
Issued by NWS

Home | Current Version | Previous Version | Text Only | Print | Product List | Glossary On
Versions: 1 2 3 4 5 6 7 8 9 10 11 12 13 14 15 16 17 18 19 20 21
000
FTUS43 KDDC 260559 CCA
TAFGCK
TAF COR
KGCK 260559Z 2606/2706 VRB06KT P6SM BKN090
     FM261100 27007KT P6SM BKN120
     FM261400 35012KT P6SM BKN200
     FM261500 35006KT P6SM SCT200=

USA.gov is the U.S. government's official web portal to all federal, state and local government web resources and services.